sensor_id;sensor_type;location;lat;lon;timestamp;temperature;humidity
73586;DHT22;61865;50.232;18.614;2022-10-16T00:00:07;12.60;99.90
73586;DHT22;61865;50.232;18.614;2022-10-16T00:02:29;12.60;99.90
73586;DHT22;61865;50.232;18.614;2022-10-16T00:04:51;12.60;99.90
73586;DHT22;61865;50.232;18.614;2022-10-16T00:07:13;12.60;99.90
73586;DHT22;61865;50.232;18.614;2022-10-16T00:09:34;12.60;99.90
73586;DHT22;61865;50.232;18.614;2022-10-16T00:11:56;12.50;99.90
73586;DHT22;61865;50.232;18.614;2022-10-16T00:14:19;12.60;99.90
73586;DHT22;61865;50.232;18.614;2022-10-16T00:16:42;12.60;99.90
73586;DHT22;61865;50.232;18.614;2022-10-16T00:19:04;12.50;99.90
73586;DHT22;61865;50.232;18.614;2022-10-16T00:21:28;12.50;99.90
73586;DHT22;61865;50.232;18.614;2022-10-16T00:23:51;12.50;99.90
73586;DHT22;61865;50.232;18.614;2022-10-16T00:26:16;12.50;99.90
73586;DHT22;61865;50.232;18.614;2022-10-16T00:28:38;12.50;99.90
73586;DHT22;61865;50.232;18.614;2022-10-16T00:31:04;12.50;99.90
73586;DHT22;61865;50.232;18.614;2022-10-16T00:33:26;12.50;99.90
73586;DHT22;61865;50.232;18.614;2022-10-16T00:35:49;12.50;99.90
73586;DHT22;61865;50.232;18.614;2022-10-16T00:38:10;12.50;99.90
73586;DHT22;61865;50.232;18.614;2022-10-16T00:40:32;12.50;99.90
73586;DHT22;61865;50.232;18.614;2022-10-16T00:42:54;12.50;99.90
73586;DHT22;61865;50.232;18.614;2022-10-16T00:45:16;12.50;99.90
73586;DHT22;61865;50.232;18.614;2022-10-16T00:47:42;12.50;99.90
73586;DHT22;61865;50.232;18.614;2022-10-16T00:50:09;12.50;99.90
73586;DHT22;61865;50.232;18.614;2022-10-16T00:52:32;12.50;99.90
73586;DHT22;61865;50.232;18.614;2022-10-16T00:54:55;12.50;99.90
73586;DHT22;61865;50.232;18.614;2022-10-16T00:57:18;12.50;99.90
73586;DHT22;61865;50.232;18.614;2022-10-16T00:59:41;12.50;99.90
73586;DHT22;61865;50.232;18.614;2022-10-16T01:02:04;12.50;99.90
73586;DHT22;61865;50.232;18.614;2022-10-16T01:04:37;12.40;99.90
73586;DHT22;61865;50.232;18.614;2022-10-16T01:07:03;12.40;99.90
73586;DHT22;61865;50.232;18.614;2022-10-16T01:09:34;12.40;99.90
73586;DHT22;61865;50.232;18.614;2022-10-16T01:12:05;12.30;99.90
73586;DHT22;61865;50.232;18.614;2022-10-16T01:14:34;12.30;99.90
73586;DHT22;61865;50.232;18.614;2022-10-16T01:17:03;12.30;99.90
73586;DHT22;61865;50.232;18.614;2022-10-16T01:19:40;12.30;99.90
73586;DHT22;61865;50.232;18.614;2022-10-16T01:22:07;12.20;99.90
73586;DHT22;61865;50.232;18.614;2022-10-16T01:24:35;12.20;99.90
73586;DHT22;61865;50.232;18.614;2022-10-16T01:27:12;12.10;99.90
73586;DHT22;61865;50.232;18.614;2022-10-16T01:29:37;12.10;99.90
73586;DHT22;61865;50.232;18.614;2022-10-16T01:32:07;12.00;99.90
73586;DHT22;61865;50.232;18.614;2022-10-16T01:34:33;12.00;99.90
73586;DHT22;61865;50.232;18.614;2022-10-16T01:37:01;12.00;99.90
73586;DHT22;61865;50.232;18.614;2022-10-16T01:39:29;12.00;99.90
73586;DHT22;61865;50.232;18.614;2022-10-16T01:41:57;12.00;99.90
73586;DHT22;61865;50.232;18.614;2022-10-16T01:44:24;12.00;99.90
73586;DHT22;61865;50.232;18.614;2022-10-16T01:46:50;12.00;99.90
73586;DHT22;61865;50.232;18.614;2022-10-16T01:49:13;11.90;99.90
73586;DHT22;61865;50.232;18.614;2022-10-16T01:51:35;11.90;99.90
73586;DHT22;61865;50.232;18.614;2022-10-16T01:54:00;11.90;99.90
73586;DHT22;61865;50.232;18.614;2022-10-16T01:56:24;11.80;99.90
73586;DHT22;61865;50.232;18.614;2022-10-16T01:58:49;11.80;99.90
73586;DHT22;61865;50.232;18.614;2022-10-16T02:01:15;11.80;99.90
73586;DHT22;61865;50.232;18.614;2022-10-16T02:03:40;11.80;99.90
73586;DHT22;61865;50.232;18.614;2022-10-16T02:06:03;11.80;99.90
73586;DHT22;61865;50.232;18.614;2022-10-16T02:08:27;11.80;99.90
73586;DHT22;61865;50.232;18.614;2022-10-16T02:10:50;11.90;99.90
73586;DHT22;61865;50.232;18.614;2022-10-16T02:13:17;11.90;99.90
73586;DHT22;61865;50.232;18.614;2022-10-16T02:15:39;11.90;99.90
73586;DHT22;61865;50.232;18.614;2022-10-16T02:18:03;11.90;99.90
73586;DHT22;61865;50.232;18.614;2022-10-16T02:20:28;11.90;99.90
73586;DHT22;61865;50.232;18.614;2022-10-16T02:22:53;11.90;99.90
73586;DHT22;61865;50.232;18.614;2022-10-16T02:25:18;11.80;99.90
73586;DHT22;61865;50.232;18.614;2022-10-16T02:27:45;11.80;99.90
73586;DHT22;61865;50.232;18.614;2022-10-16T02:30:12;11.70;99.90
73586;DHT22;61865;50.232;18.614;2022-10-16T02:32:37;11.70;99.90
73586;DHT22;61865;50.232;18.614;2022-10-16T02:35:02;11.70;99.90
73586;DHT22;61865;50.232;18.614;2022-10-16T02:37:25;11.70;99.90
73586;DHT22;61865;50.232;18.614;2022-10-16T02:39:48;11.60;99.90
73586;DHT22;61865;50.232;18.614;2022-10-16T02:42:11;11.60;99.90
73586;DHT22;61865;50.232;18.614;2022-10-16T02:44:33;11.60;99.90
73586;DHT22;61865;50.232;18.614;2022-10-16T02:46:55;11.60;99.90
73586;DHT22;61865;50.232;18.614;2022-10-16T02:49:17;11.60;99.90
73586;DHT22;61865;50.232;18.614;2022-10-16T02:51:40;11.70;99.90
73586;DHT22;61865;50.232;18.614;2022-10-16T02:54:02;11.80;99.90
73586;DHT22;61865;50.232;18.614;2022-10-16T02:56:24;11.80;99.90
73586;DHT22;61865;50.232;18.614;2022-10-16T02:58:46;11.80;99.90
73586;DHT22;61865;50.232;18.614;2022-10-16T03:01:08;11.90;99.90
73586;DHT22;61865;50.232;18.614;2022-10-16T03:03:29;12.00;99.90
73586;DHT22;61865;50.232;18.614;2022-10-16T03:05:51;12.00;99.90
73586;DHT22;61865;50.232;18.614;2022-10-16T03:08:14;12.10;99.90
73586;DHT22;61865;50.232;18.614;2022-10-16T03:10:36;12.10;99.90
73586;DHT22;61865;50.232;18.614;2022-10-16T03:12:58;12.20;99.90
73586;DHT22;61865;50.232;18.614;2022-10-16T03:15:20;12.30;99.90
73586;DHT22;61865;50.232;18.614;2022-10-16T03:17:42;12.40;99.90
73586;DHT22;61865;50.232;18.614;2022-10-16T03:20:05;12.40;99.90
73586;DHT22;61865;50.232;18.614;2022-10-16T03:22:27;12.50;99.90
73586;DHT22;61865;50.232;18.614;2022-10-16T03:24:50;12.60;99.90
73586;DHT22;61865;50.232;18.614;2022-10-16T03:27:12;12.60;99.90
73586;DHT22;61865;50.232;18.614;2022-10-16T03:29:34;12.70;99.90
73586;DHT22;61865;50.232;18.614;2022-10-16T03:31:56;12.80;99.90
73586;DHT22;61865;50.232;18.614;2022-10-16T03:34:18;12.80;99.90
73586;DHT22;61865;50.232;18.614;2022-10-16T03:36:40;12.90;99.90
73586;DHT22;61865;50.232;18.614;2022-10-16T03:39:02;12.90;99.90
73586;DHT22;61865;50.232;18.614;2022-10-16T03:41:25;13.00;99.90
73586;DHT22;61865;50.232;18.614;2022-10-16T03:43:47;13.00;99.90
73586;DHT22;61865;50.232;18.614;2022-10-16T03:46:09;13.00;99.90
73586;DHT22;61865;50.232;18.614;2022-10-16T03:48:31;13.10;99.90
73586;DHT22;61865;50.232;18.614;2022-10-16T03:50:53;13.10;99.90
73586;DHT22;61865;50.232;18.614;2022-10-16T03:53:15;13.00;99.90
73586;DHT22;61865;50.232;18.614;2022-10-16T03:55:37;13.00;99.90
73586;DHT22;61865;50.232;18.614;2022-10-16T03:58:00;13.00;99.90
73586;DHT22;61865;50.232;18.614;2022-10-16T04:00:22;12.90;99.90
73586;DHT22;61865;50.232;18.614;2022-10-16T04:02:44;12.90;99.90
73586;DHT22;61865;50.232;18.614;2022-10-16T04:05:06;12.80;99.90
73586;DHT22;61865;50.232;18.614;2022-10-16T04:07:28;12.80;99.90
73586;DHT22;61865;50.232;18.614;2022-10-16T04:09:50;12.80;99.90
73586;DHT22;61865;50.232;18.614;2022-10-16T04:12:12;12.70;99.90
73586;DHT22;61865;50.232;18.614;2022-10-16T04:14:35;12.60;99.90
73586;DHT22;61865;50.232;18.614;2022-10-16T04:16:57;12.60;99.90
73586;DHT22;61865;50.232;18.614;2022-10-16T04:19:19;12.50;99.90
73586;DHT22;61865;50.232;18.614;2022-10-16T04:21:41;12.30;99.90
73586;DHT22;61865;50.232;18.614;2022-10-16T04:24:03;12.20;99.90
73586;DHT22;61865;50.232;18.614;2022-10-16T04:26:25;12.10;99.90
73586;DHT22;61865;50.232;18.614;2022-10-16T04:28:47;12.00;99.90
73586;DHT22;61865;50.232;18.614;2022-10-16T04:31:10;12.00;99.90
73586;DHT22;61865;50.232;18.614;2022-10-16T04:33:32;11.90;99.90
73586;DHT22;61865;50.232;18.614;2022-10-16T04:35:57;11.80;99.90
73586;DHT22;61865;50.232;18.614;2022-10-16T04:38:19;11.80;99.90
73586;DHT22;61865;50.232;18.614;2022-10-16T04:40:47;11.80;99.90
73586;DHT22;61865;50.232;18.614;2022-10-16T04:43:09;11.70;99.90
73586;DHT22;61865;50.232;18.614;2022-10-16T04:45:31;11.70;99.90
73586;DHT22;61865;50.232;18.614;2022-10-16T04:47:56;11.70;99.90
73586;DHT22;61865;50.232;18.614;2022-10-16T04:50:18;11.60;99.90
73586;DHT22;61865;50.232;18.614;2022-10-16T04:52:40;11.60;99.90
73586;DHT22;61865;50.232;18.614;2022-10-16T04:55:02;11.60;99.90
73586;DHT22;61865;50.232;18.614;2022-10-16T04:57:24;11.60;99.90
73586;DHT22;61865;50.232;18.614;2022-10-16T04:59:47;11.60;99.90
73586;DHT22;61865;50.232;18.614;2022-10-16T05:02:09;11.60;99.90
73586;DHT22;61865;50.232;18.614;2022-10-16T05:04:32;11.60;99.90
73586;DHT22;61865;50.232;18.614;2022-10-16T05:06:54;11.60;99.90
73586;DHT22;61865;50.232;18.614;2022-10-16T05:09:16;11.60;99.90
73586;DHT22;61865;50.232;18.614;2022-10-16T05:11:38;11.50;99.90
73586;DHT22;61865;50.232;18.614;2022-10-16T05:13:59;11.50;99.90
73586;DHT22;61865;50.232;18.614;2022-10-16T05:16:21;11.60;99.90
73586;DHT22;61865;50.232;18.614;2022-10-16T05:18:43;11.60;99.90
73586;DHT22;61865;50.232;18.614;2022-10-16T05:21:06;11.60;99.90
73586;DHT22;61865;50.232;18.614;2022-10-16T05:23:28;11.50;99.90
73586;DHT22;61865;50.232;18.614;2022-10-16T05:25:54;11.50;99.90
73586;DHT22;61865;50.232;18.614;2022-10-16T05:28:18;11.40;99.90
73586;DHT22;61865;50.232;18.614;2022-10-16T05:30:40;11.40;99.90
73586;DHT22;61865;50.232;18.614;2022-10-16T05:33:02;11.40;99.90
73586;DHT22;61865;50.232;18.614;2022-10-16T05:35:24;11.40;99.90
73586;DHT22;61865;50.232;18.614;2022-10-16T05:37:47;11.40;99.90
73586;DHT22;61865;50.232;18.614;2022-10-16T05:40:10;11.40;99.90
73586;DHT22;61865;50.232;18.614;2022-10-16T05:42:32;11.40;99.90
73586;DHT22;61865;50.232;18.614;2022-10-16T05:44:54;11.40;99.90
73586;DHT22;61865;50.232;18.614;2022-10-16T05:47:16;11.40;99.90
73586;DHT22;61865;50.232;18.614;2022-10-16T05:49:38;11.40;99.90
73586;DHT22;61865;50.232;18.614;2022-10-16T05:52:00;11.50;99.90
73586;DHT22;61865;50.232;18.614;2022-10-16T05:54:23;11.50;99.90
73586;DHT22;61865;50.232;18.614;2022-10-16T05:56:45;11.50;99.90
73586;DHT22;61865;50.232;18.614;2022-10-16T05:59:07;11.60;99.90
73586;DHT22;61865;50.232;18.614;2022-10-16T06:01:29;11.60;99.90
73586;DHT22;61865;50.232;18.614;2022-10-16T06:03:51;11.70;99.90
73586;DHT22;61865;50.232;18.614;2022-10-16T06:06:15;11.70;99.90
73586;DHT22;61865;50.232;18.614;2022-10-16T06:08:38;11.90;99.90
73586;DHT22;61865;50.232;18.614;2022-10-16T06:11:02;12.00;99.90
73586;DHT22;61865;50.232;18.614;2022-10-16T06:13:24;12.00;99.90
73586;DHT22;61865;50.232;18.614;2022-10-16T06:15:46;12.20;99.90
73586;DHT22;61865;50.232;18.614;2022-10-16T06:18:08;12.30;99.90
73586;DHT22;61865;50.232;18.614;2022-10-16T06:20:30;12.40;99.90
73586;DHT22;61865;50.232;18.614;2022-10-16T06:22:51;12.60;99.90
73586;DHT22;61865;50.232;18.614;2022-10-16T06:25:13;12.70;99.90
73586;DHT22;61865;50.232;18.614;2022-10-16T06:27:39;12.80;99.90
73586;DHT22;61865;50.232;18.614;2022-10-16T06:30:01;13.00;99.90
73586;DHT22;61865;50.232;18.614;2022-10-16T06:32:24;13.20;99.90
73586;DHT22;61865;50.232;18.614;2022-10-16T06:34:46;13.30;99.90
73586;DHT22;61865;50.232;18.614;2022-10-16T06:37:08;13.40;99.90
73586;DHT22;61865;50.232;18.614;2022-10-16T06:39:30;13.50;99.90
73586;DHT22;61865;50.232;18.614;2022-10-16T06:41:51;13.60;99.90
73586;DHT22;61865;50.232;18.614;2022-10-16T06:44:14;13.80;99.90
73586;DHT22;61865;50.232;18.614;2022-10-16T06:46:36;13.80;99.90
73586;DHT22;61865;50.232;18.614;2022-10-16T06:48:58;14.00;99.90
73586;DHT22;61865;50.232;18.614;2022-10-16T06:51:21;14.10;99.90
73586;DHT22;61865;50.232;18.614;2022-10-16T06:53:45;14.30;99.90
73586;DHT22;61865;50.232;18.614;2022-10-16T06:56:08;14.40;99.90
73586;DHT22;61865;50.232;18.614;2022-10-16T06:58:30;14.60;99.90
73586;DHT22;61865;50.232;18.614;2022-10-16T07:00:56;14.80;99.90
73586;DHT22;61865;50.232;18.614;2022-10-16T07:03:18;14.90;99.90
73586;DHT22;61865;50.232;18.614;2022-10-16T07:05:40;15.00;99.90
73586;DHT22;61865;50.232;18.614;2022-10-16T07:08:02;15.10;99.90
73586;DHT22;61865;50.232;18.614;2022-10-16T07:10:25;15.10;99.90
73586;DHT22;61865;50.232;18.614;2022-10-16T07:12:47;15.20;99.90
73586;DHT22;61865;50.232;18.614;2022-10-16T07:15:09;15.20;99.90
73586;DHT22;61865;50.232;18.614;2022-10-16T07:17:32;15.40;99.90
73586;DHT22;61865;50.232;18.614;2022-10-16T07:19:54;15.50;99.90
73586;DHT22;61865;50.232;18.614;2022-10-16T07:22:16;15.60;99.90
73586;DHT22;61865;50.232;18.614;2022-10-16T07:24:38;15.80;99.90
73586;DHT22;61865;50.232;18.614;2022-10-16T07:27:00;16.00;99.90
73586;DHT22;61865;50.232;18.614;2022-10-16T07:29:22;16.20;99.90
73586;DHT22;61865;50.232;18.614;2022-10-16T07:31:44;16.40;99.90
73586;DHT22;61865;50.232;18.614;2022-10-16T07:34:08;16.50;99.90
73586;DHT22;61865;50.232;18.614;2022-10-16T07:36:29;16.70;99.90
73586;DHT22;61865;50.232;18.614;2022-10-16T07:38:51;16.80;99.90
73586;DHT22;61865;50.232;18.614;2022-10-16T07:41:15;16.90;99.90
73586;DHT22;61865;50.232;18.614;2022-10-16T07:43:37;16.90;99.90
73586;DHT22;61865;50.232;18.614;2022-10-16T07:46:00;17.00;99.90
73586;DHT22;61865;50.232;18.614;2022-10-16T07:48:22;17.10;99.90
73586;DHT22;61865;50.232;18.614;2022-10-16T07:50:47;17.20;99.90
73586;DHT22;61865;50.232;18.614;2022-10-16T07:53:10;17.30;99.90
73586;DHT22;61865;50.232;18.614;2022-10-16T07:55:32;17.30;99.90
73586;DHT22;61865;50.232;18.614;2022-10-16T07:57:54;17.30;99.90
73586;DHT22;61865;50.232;18.614;2022-10-16T08:00:16;17.40;99.90
73586;DHT22;61865;50.232;18.614;2022-10-16T08:02:38;17.50;99.90
73586;DHT22;61865;50.232;18.614;2022-10-16T08:05:00;17.60;99.90
73586;DHT22;61865;50.232;18.614;2022-10-16T08:07:23;17.70;99.90
73586;DHT22;61865;50.232;18.614;2022-10-16T08:09:49;17.80;99.90
73586;DHT22;61865;50.232;18.614;2022-10-16T08:12:12;17.90;99.90
73586;DHT22;61865;50.232;18.614;2022-10-16T08:14:33;18.10;99.90
73586;DHT22;61865;50.232;18.614;2022-10-16T08:16:55;18.20;99.90
73586;DHT22;61865;50.232;18.614;2022-10-16T08:19:17;18.40;97.30
73586;DHT22;61865;50.232;18.614;2022-10-16T08:21:39;18.60;96.90
73586;DHT22;61865;50.232;18.614;2022-10-16T08:24:02;18.70;94.20
73586;DHT22;61865;50.232;18.614;2022-10-16T08:26:25;18.80;91.70
73586;DHT22;61865;50.232;18.614;2022-10-16T08:28:49;18.90;91.20
73586;DHT22;61865;50.232;18.614;2022-10-16T08:31:13;19.00;90.80
73586;DHT22;61865;50.232;18.614;2022-10-16T08:33:35;19.00;89.90
73586;DHT22;61865;50.232;18.614;2022-10-16T08:35:57;19.00;89.00
73586;DHT22;61865;50.232;18.614;2022-10-16T08:38:19;19.00;89.80
73586;DHT22;61865;50.232;18.614;2022-10-16T08:40:42;19.00;88.40
73586;DHT22;61865;50.232;18.614;2022-10-16T08:43:28;19.10;86.70
73586;DHT22;61865;50.232;18.614;2022-10-16T08:46:13;19.20;86.70
73586;DHT22;61865;50.232;18.614;2022-10-16T08:48:43;19.40;86.10
73586;DHT22;61865;50.232;18.614;2022-10-16T08:51:08;19.40;83.90
73586;DHT22;61865;50.232;18.614;2022-10-16T08:53:33;19.30;83.90
73586;DHT22;61865;50.232;18.614;2022-10-16T08:55:59;19.30;81.50
73586;DHT22;61865;50.232;18.614;2022-10-16T08:58:22;19.30;82.40
73586;DHT22;61865;50.232;18.614;2022-10-16T09:00:49;19.30;80.40
73586;DHT22;61865;50.232;18.614;2022-10-16T09:03:21;19.30;83.30
73586;DHT22;61865;50.232;18.614;2022-10-16T09:05:57;19.40;83.80
73586;DHT22;61865;50.232;18.614;2022-10-16T09:08:28;19.50;81.40
73586;DHT22;61865;50.232;18.614;2022-10-16T09:10:56;19.60;83.40
73586;DHT22;61865;50.232;18.614;2022-10-16T09:13:27;19.70;80.80
73586;DHT22;61865;50.232;18.614;2022-10-16T09:15:56;19.70;80.50
73586;DHT22;61865;50.232;18.614;2022-10-16T09:18:26;19.80;79.20
73586;DHT22;61865;50.232;18.614;2022-10-16T09:20:52;20.00;78.70
73586;DHT22;61865;50.232;18.614;2022-10-16T09:23:17;20.10;76.00
73586;DHT22;61865;50.232;18.614;2022-10-16T09:25:42;20.00;76.80
73586;DHT22;61865;50.232;18.614;2022-10-16T09:28:04;19.90;77.70
73586;DHT22;61865;50.232;18.614;2022-10-16T09:30:29;19.90;79.10
73586;DHT22;61865;50.232;18.614;2022-10-16T09:32:52;19.90;78.50
73586;DHT22;61865;50.232;18.614;2022-10-16T09:35:17;20.00;77.30
73586;DHT22;61865;50.232;18.614;2022-10-16T09:37:42;20.30;77.70
73586;DHT22;61865;50.232;18.614;2022-10-16T09:40:05;20.40;74.00
73586;DHT22;61865;50.232;18.614;2022-10-16T09:42:31;20.50;75.80
73586;DHT22;61865;50.232;18.614;2022-10-16T09:44:54;20.50;74.20
73586;DHT22;61865;50.232;18.614;2022-10-16T09:47:19;20.60;72.40
73586;DHT22;61865;50.232;18.614;2022-10-16T09:49:51;20.60;72.90
73586;DHT22;61865;50.232;18.614;2022-10-16T09:52:14;20.80;70.30
73586;DHT22;61865;50.232;18.614;2022-10-16T09:55:01;20.80;70.80
73586;DHT22;61865;50.232;18.614;2022-10-16T09:57:24;20.70;70.30
73586;DHT22;61865;50.232;18.614;2022-10-16T09:59:47;20.80;69.80
73586;DHT22;61865;50.232;18.614;2022-10-16T10:02:10;20.60;69.40
73586;DHT22;61865;50.232;18.614;2022-10-16T10:04:41;20.50;71.10
73586;DHT22;61865;50.232;18.614;2022-10-16T10:07:04;20.50;70.70
73586;DHT22;61865;50.232;18.614;2022-10-16T10:09:27;20.50;71.40
73586;DHT22;61865;50.232;18.614;2022-10-16T10:11:52;20.60;71.00
73586;DHT22;61865;50.232;18.614;2022-10-16T10:14:20;20.60;70.10
73586;DHT22;61865;50.232;18.614;2022-10-16T10:16:44;20.50;71.20
73586;DHT22;61865;50.232;18.614;2022-10-16T10:19:14;20.50;71.40
73586;DHT22;61865;50.232;18.614;2022-10-16T10:21:40;20.30;73.10
73586;DHT22;61865;50.232;18.614;2022-10-16T10:24:02;20.30;73.20
73586;DHT22;61865;50.232;18.614;2022-10-16T10:26:27;20.30;73.80
73586;DHT22;61865;50.232;18.614;2022-10-16T10:28:55;20.20;73.00
73586;DHT22;61865;50.232;18.614;2022-10-16T10:31:27;20.20;76.00
73586;DHT22;61865;50.232;18.614;2022-10-16T10:33:54;20.20;75.30
73586;DHT22;61865;50.232;18.614;2022-10-16T10:36:27;20.30;74.30
73586;DHT22;61865;50.232;18.614;2022-10-16T10:38:54;20.40;73.30
73586;DHT22;61865;50.232;18.614;2022-10-16T10:41:37;20.50;72.70
73586;DHT22;61865;50.232;18.614;2022-10-16T10:44:09;20.50;73.00
73586;DHT22;61865;50.232;18.614;2022-10-16T10:46:39;20.50;73.70
73586;DHT22;61865;50.232;18.614;2022-10-16T10:49:30;20.40;73.30
73586;DHT22;61865;50.232;18.614;2022-10-16T10:52:02;20.50;74.00
73586;DHT22;61865;50.232;18.614;2022-10-16T10:54:34;20.70;73.50
73586;DHT22;61865;50.232;18.614;2022-10-16T10:56:59;20.80;72.30
73586;DHT22;61865;50.232;18.614;2022-10-16T11:02:15;20.90;71.50
73586;DHT22;61865;50.232;18.614;2022-10-16T11:05:14;20.90;71.60
73586;DHT22;61865;50.232;18.614;2022-10-16T11:07:43;20.80;71.50
73586;DHT22;61865;50.232;18.614;2022-10-16T11:10:15;20.70;72.80
73586;DHT22;61865;50.232;18.614;2022-10-16T11:12:41;20.70;73.50
73586;DHT22;61865;50.232;18.614;2022-10-16T11:15:11;20.70;73.80
73586;DHT22;61865;50.232;18.614;2022-10-16T11:17:35;20.70;74.00
73586;DHT22;61865;50.232;18.614;2022-10-16T11:20:05;20.70;74.00
73586;DHT22;61865;50.232;18.614;2022-10-16T11:22:36;20.70;72.90
73586;DHT22;61865;50.232;18.614;2022-10-16T11:25:04;20.60;72.90
73586;DHT22;61865;50.232;18.614;2022-10-16T11:27:37;20.50;74.00
73586;DHT22;61865;50.232;18.614;2022-10-16T11:30:01;20.40;73.60
73586;DHT22;61865;50.232;18.614;2022-10-16T11:32:28;20.20;75.40
73586;DHT22;61865;50.232;18.614;2022-10-16T11:34:58;20.10;76.20
73586;DHT22;61865;50.232;18.614;2022-10-16T11:37:24;20.00;77.00
73586;DHT22;61865;50.232;18.614;2022-10-16T11:39:50;19.90;79.10
73586;DHT22;61865;50.232;18.614;2022-10-16T11:42:19;19.80;79.80
73586;DHT22;61865;50.232;18.614;2022-10-16T11:44:51;19.80;80.80
73586;DHT22;61865;50.232;18.614;2022-10-16T11:47:24;19.70;81.40
73586;DHT22;61865;50.232;18.614;2022-10-16T11:49:50;19.60;82.40
73586;DHT22;61865;50.232;18.614;2022-10-16T11:52:20;19.60;85.50
73586;DHT22;61865;50.232;18.614;2022-10-16T11:54:47;19.70;86.00
73586;DHT22;61865;50.232;18.614;2022-10-16T11:57:15;19.80;86.50
73586;DHT22;61865;50.232;18.614;2022-10-16T11:59:42;19.90;82.20
73586;DHT22;61865;50.232;18.614;2022-10-16T12:02:25;20.10;80.10
73586;DHT22;61865;50.232;18.614;2022-10-16T12:04:50;20.20;79.50
73586;DHT22;61865;50.232;18.614;2022-10-16T12:07:22;20.20;79.60
73586;DHT22;61865;50.232;18.614;2022-10-16T12:09:46;20.10;80.40
73586;DHT22;61865;50.232;18.614;2022-10-16T12:12:26;20.10;81.20
73586;DHT22;61865;50.232;18.614;2022-10-16T12:14:59;20.10;79.20
73586;DHT22;61865;50.232;18.614;2022-10-16T12:17:27;20.20;80.00
73586;DHT22;61865;50.232;18.614;2022-10-16T12:20:00;20.20;79.80
73586;DHT22;61865;50.232;18.614;2022-10-16T12:22:22;20.10;79.20
73586;DHT22;61865;50.232;18.614;2022-10-16T12:24:51;20.00;79.60
73586;DHT22;61865;50.232;18.614;2022-10-16T12:27:23;19.90;79.20
73586;DHT22;61865;50.232;18.614;2022-10-16T12:29:45;19.80;81.60
73586;DHT22;61865;50.232;18.614;2022-10-16T12:32:24;19.70;81.20
73586;DHT22;61865;50.232;18.614;2022-10-16T12:34:50;19.60;84.70
73586;DHT22;61865;50.232;18.614;2022-10-16T12:37:18;19.60;85.80
73586;DHT22;61865;50.232;18.614;2022-10-16T12:39:42;19.50;82.90
73586;DHT22;61865;50.232;18.614;2022-10-16T12:42:06;19.40;85.80
73586;DHT22;61865;50.232;18.614;2022-10-16T12:44:40;19.40;86.50
73586;DHT22;61865;50.232;18.614;2022-10-16T12:47:02;19.40;86.80
73586;DHT22;61865;50.232;18.614;2022-10-16T12:49:32;19.30;88.20
73586;DHT22;61865;50.232;18.614;2022-10-16T12:51:58;19.30;90.20
73586;DHT22;61865;50.232;18.614;2022-10-16T12:54:25;19.40;89.80
73586;DHT22;61865;50.232;18.614;2022-10-16T12:57:08;19.40;90.10
73586;DHT22;61865;50.232;18.614;2022-10-16T12:59:40;19.50;90.70
73586;DHT22;61865;50.232;18.614;2022-10-16T13:05:16;19.60;89.40
73586;DHT22;61865;50.232;18.614;2022-10-16T13:07:53;19.80;89.10
73586;DHT22;61865;50.232;18.614;2022-10-16T13:10:23;19.80;87.10
73586;DHT22;61865;50.232;18.614;2022-10-16T13:13:13;19.90;86.30
73586;DHT22;61865;50.232;18.614;2022-10-16T13:15:52;20.00;85.80
73586;DHT22;61865;50.232;18.614;2022-10-16T13:18:21;20.10;83.80
73586;DHT22;61865;50.232;18.614;2022-10-16T13:20:58;20.20;81.10
73586;DHT22;61865;50.232;18.614;2022-10-16T13:23:28;20.30;78.70
73586;DHT22;61865;50.232;18.614;2022-10-16T13:26:03;20.30;77.70
73586;DHT22;61865;50.232;18.614;2022-10-16T13:28:29;20.30;77.10
73586;DHT22;61865;50.232;18.614;2022-10-16T13:30:53;20.30;75.70
73586;DHT22;61865;50.232;18.614;2022-10-16T13:33:18;20.30;74.60
73586;DHT22;61865;50.232;18.614;2022-10-16T13:35:47;20.30;75.80
73586;DHT22;61865;50.232;18.614;2022-10-16T13:38:13;20.30;74.90
73586;DHT22;61865;50.232;18.614;2022-10-16T13:40:36;20.30;75.10
73586;DHT22;61865;50.232;18.614;2022-10-16T13:42:59;20.20;76.30
73586;DHT22;61865;50.232;18.614;2022-10-16T13:45:24;20.30;76.30
73586;DHT22;61865;50.232;18.614;2022-10-16T13:47:47;20.30;75.80
73586;DHT22;61865;50.232;18.614;2022-10-16T13:50:12;20.30;76.20
73586;DHT22;61865;50.232;18.614;2022-10-16T13:52:34;20.30;76.60
73586;DHT22;61865;50.232;18.614;2022-10-16T13:54:57;20.30;75.90
73586;DHT22;61865;50.232;18.614;2022-10-16T13:57:22;20.30;74.80
73586;DHT22;61865;50.232;18.614;2022-10-16T13:59:44;20.30;75.10
73586;DHT22;61865;50.232;18.614;2022-10-16T14:02:19;20.20;73.60
73586;DHT22;61865;50.232;18.614;2022-10-16T14:04:42;20.10;73.40
73586;DHT22;61865;50.232;18.614;2022-10-16T14:07:03;20.00;75.00
73586;DHT22;61865;50.232;18.614;2022-10-16T14:09:27;19.90;75.90
73586;DHT22;61865;50.232;18.614;2022-10-16T14:11:55;19.80;76.30
73586;DHT22;61865;50.232;18.614;2022-10-16T14:14:19;19.80;77.70
73586;DHT22;61865;50.232;18.614;2022-10-16T14:16:42;19.90;75.70
73586;DHT22;61865;50.232;18.614;2022-10-16T14:19:05;19.80;76.30
73586;DHT22;61865;50.232;18.614;2022-10-16T14:21:29;19.70;77.50
73586;DHT22;61865;50.232;18.614;2022-10-16T14:23:52;19.70;76.90
73586;DHT22;61865;50.232;18.614;2022-10-16T14:26:17;19.80;76.90
73586;DHT22;61865;50.232;18.614;2022-10-16T14:28:41;19.80;77.00
73586;DHT22;61865;50.232;18.614;2022-10-16T14:31:24;19.70;77.00
73586;DHT22;61865;50.232;18.614;2022-10-16T14:33:46;19.70;77.70
73586;DHT22;61865;50.232;18.614;2022-10-16T14:36:13;19.70;76.70
73586;DHT22;61865;50.232;18.614;2022-10-16T14:38:35;19.60;77.70
73586;DHT22;61865;50.232;18.614;2022-10-16T14:40:58;19.60;78.20
73586;DHT22;61865;50.232;18.614;2022-10-16T14:43:22;19.60;79.40
73586;DHT22;61865;50.232;18.614;2022-10-16T14:45:51;19.60;78.80
73586;DHT22;61865;50.232;18.614;2022-10-16T14:48:17;19.60;79.00
73586;DHT22;61865;50.232;18.614;2022-10-16T14:50:40;19.70;77.10
73586;DHT22;61865;50.232;18.614;2022-10-16T14:53:04;19.70;78.20
73586;DHT22;61865;50.232;18.614;2022-10-16T14:55:29;19.70;78.60
73586;DHT22;61865;50.232;18.614;2022-10-16T14:57:51;19.70;78.80
73586;DHT22;61865;50.232;18.614;2022-10-16T15:00:17;19.70;79.10
73586;DHT22;61865;50.232;18.614;2022-10-16T15:02:39;19.60;80.30
73586;DHT22;61865;50.232;18.614;2022-10-16T15:05:12;19.60;80.00
73586;DHT22;61865;50.232;18.614;2022-10-16T15:07:34;19.50;80.00